Time;durP1;ratioP1;P1;durP2;ratioP2;P2;SDS_P1;SDS_P2;PMS_P1;PMS_P2;Temp;Humidity;BMP_temperature;BMP_pressure;BME280_temperature;BME280_humidity;BME280_pressure;Samples;Min_cycle;Max_cycle;Signal;HPM_P1;HPM_P2
2023/02/28 00:00:39;;;;;;;0.20;0.10;;;7.10;99.90;;;;;;20988223;28;20414;-67
2023/02/28 00:10:45;;;;;;;0.20;0.10;;;6.60;99.90;;;;;;20934961;28;20430;-67
2023/02/28 00:20:49;;;;;;;0.20;0.10;;;6.50;99.90;;;;;;20930139;28;20414;-66
2023/02/28 00:30:54;;;;;;;0.20;0.10;;;6.10;99.90;;;;;;21004566;28;20442;-67
2023/02/28 00:40:58;;;;;;;0.20;0.10;;;6.40;99.90;;;;;;21017385;28;20408;-68
2023/02/28 00:51:03;;;;;;;0.20;0.10;;;6.70;99.90;;;;;;21021467;28;20477;-66
2023/02/28 01:01:07;;;;;;;0.20;0.10;;;6.80;99.90;;;;;;21021263;28;20408;-67
2023/02/28 01:11:15;;;;;;;0.20;0.10;;;7.10;99.90;;;;;;20994079;28;20459;-66
2023/02/28 01:21:21;;;;;;;0.20;0.10;;;7.00;99.90;;;;;;21017877;28;20417;-66
2023/02/28 01:31:27;;;;;;;0.20;0.10;;;7.20;99.90;;;;;;21019508;28;20397;-66
2023/02/28 01:41:34;;;;;;;0.20;0.10;;;7.30;99.90;;;;;;21016831;28;20440;-67
2023/02/28 01:51:50;;;;;;;0.20;0.10;;;7.40;99.90;;;;;;21018045;28;20421;-67
2023/02/28 02:01:54;;;;;;;0.20;0.10;;;7.30;99.90;;;;;;21014896;28;20410;-66
2023/02/28 02:12:03;;;;;;;0.20;0.10;;;7.80;99.90;;;;;;20999309;28;20412;-66
2023/02/28 02:22:45;;;;;;;0.20;0.10;;;7.80;99.90;;;;;;20991272;28;20440;-66
2023/02/28 02:33:09;;;;;;;0.20;0.10;;;7.80;99.90;;;;;;20977481;28;20494;-66
2023/02/28 02:43:20;;;;;;;0.20;0.10;;;7.90;99.90;;;;;;20971046;28;20402;-66
2023/02/28 02:53:29;;;;;;;0.20;0.10;;;7.90;99.90;;;;;;20977069;28;20795;-66
2023/02/28 03:03:35;;;;;;;0.20;0.10;;;7.80;99.90;;;;;;20957814;28;20417;-66
2023/02/28 03:14:05;;;;;;;0.20;0.00;;;8.30;99.90;;;;;;20984482;28;20416;-66
2023/02/28 03:24:14;;;;;;;0.20;0.10;;;8.30;99.90;;;;;;20972287;28;20406;-67
2023/02/28 03:34:23;;;;;;;0.20;0.10;;;8.10;99.90;;;;;;20970193;28;20566;-66
2023/02/28 03:44:31;;;;;;;0.20;0.10;;;7.80;99.90;;;;;;20887975;28;20774;-67
2023/02/28 03:54:41;;;;;;;0.20;0.10;;;7.50;99.90;;;;;;20918603;28;20966;-67
2023/02/28 04:04:48;;;;;;;0.20;0.05;;;7.50;99.90;;;;;;20987925;28;20467;-67
2023/02/28 04:14:52;;;;;;;0.20;0.10;;;7.40;99.90;;;;;;20969144;28;20861;-67
2023/02/28 04:24:57;;;;;;;0.20;0.10;;;7.50;99.90;;;;;;21042032;28;20924;-67
2023/02/28 04:35:02;;;;;;;0.20;0.10;;;7.30;99.90;;;;;;20942290;28;20408;-67
2023/02/28 04:45:10;;;;;;;0.20;0.10;;;7.50;99.90;;;;;;20900934;28;20408;-66
2023/02/28 04:55:14;;;;;;;0.20;0.10;;;7.70;99.90;;;;;;20918666;28;20408;-67
2023/02/28 05:05:19;;;;;;;0.20;0.10;;;7.60;99.90;;;;;;20983197;28;20414;-67
2023/02/28 05:15:23;;;;;;;0.20;0.10;;;7.70;99.90;;;;;;20964009;28;20402;-67
2023/02/28 05:25:28;;;;;;;0.20;0.10;;;7.60;99.90;;;;;;20942228;28;21058;-66
2023/02/28 05:35:33;;;;;;;0.20;0.10;;;7.50;99.90;;;;;;20877706;28;20470;-67
2023/02/28 05:45:38;;;;;;;0.20;0.10;;;7.70;99.90;;;;;;20896287;28;20989;-67
2023/02/28 05:55:42;;;;;;;0.20;0.10;;;7.50;99.90;;;;;;20883486;28;20509;-66
2023/02/28 06:05:47;;;;;;;0.20;0.10;;;7.70;99.90;;;;;;20978641;28;20417;-66
2023/02/28 06:15:51;;;;;;;0.20;0.10;;;7.60;99.90;;;;;;20960827;28;20735;-67
2023/02/28 06:25:58;;;;;;;0.20;0.10;;;7.70;99.90;;;;;;20959366;28;20402;-67
2023/02/28 06:36:02;;;;;;;0.20;0.10;;;7.90;99.90;;;;;;20975864;28;20424;-67
2023/02/28 06:46:09;;;;;;;0.20;0.10;;;8.00;99.90;;;;;;20962137;28;20410;-68
2023/02/28 06:56:14;;;;;;;0.20;0.10;;;8.00;99.90;;;;;;20987477;28;20432;-67
2023/02/28 07:06:22;;;;;;;0.20;0.10;;;7.90;99.90;;;;;;20983048;28;20418;-68
2023/02/28 07:16:26;;;;;;;0.20;0.10;;;7.80;99.90;;;;;;20971667;28;21010;-67
2023/02/28 07:26:35;;;;;;;0.20;0.10;;;8.20;99.90;;;;;;20969547;28;20499;-77
2023/02/28 07:36:38;;;;;;;0.20;0.10;;;8.30;99.90;;;;;;20952248;28;20395;-68
2023/02/28 07:46:44;;;;;;;0.20;0.10;;;8.50;99.90;;;;;;20986753;28;20552;-67
2023/02/28 07:56:48;;;;;;;0.20;0.10;;;8.20;99.90;;;;;;20965534;28;20489;-69
2023/02/28 08:06:53;;;;;;;0.20;0.00;;;8.20;99.90;;;;;;20977109;28;20412;-67
2023/02/28 08:16:57;;;;;;;0.20;0.10;;;8.50;99.90;;;;;;21003210;28;20416;-67
2023/02/28 08:27:02;;;;;;;0.20;0.05;;;8.50;99.90;;;;;;20978059;28;20398;-67
2023/02/28 08:37:05;;;;;;;0.20;0.10;;;8.80;99.90;;;;;;20979595;28;20394;-70
2023/02/28 08:47:10;;;;;;;0.20;0.10;;;9.10;99.90;;;;;;20979574;28;20402;-66
2023/02/28 08:57:14;;;;;;;0.20;0.10;;;8.80;99.90;;;;;;20944707;28;20807;-68
2023/02/28 09:07:20;;;;;;;0.20;0.00;;;9.10;99.90;;;;;;20979581;28;20410;-67
2023/02/28 09:17:23;;;;;;;0.20;0.10;;;9.00;99.90;;;;;;20979787;28;20881;-66
2023/02/28 09:27:34;;;;;;;0.20;0.10;;;9.50;99.90;;;;;;20979443;28;20406;-67
2023/02/28 09:37:38;;;;;;;0.20;0.10;;;9.70;99.90;;;;;;20902131;28;20408;-67
2023/02/28 09:47:46;;;;;;;0.20;0.10;;;9.60;99.90;;;;;;20872399;28;20419;-68
2023/02/28 09:57:52;;;;;;;0.20;0.10;;;9.90;99.90;;;;;;20911651;28;20382;-68
2023/02/28 10:08:08;;;;;;;0.20;0.10;;;10.10;99.90;;;;;;20991082;28;20500;-68
2023/02/28 10:18:15;;;;;;;0.20;0.10;;;10.80;99.90;;;;;;20991867;28;20763;-68
2023/02/28 10:28:20;;;;;;;0.20;0.00;;;11.10;99.90;;;;;;20934977;28;20430;-68
2023/02/28 10:38:29;;;;;;;0.20;0.07;;;12.10;99.90;;;;;;20907859;28;20399;-68
2023/02/28 10:48:38;;;;;;;0.20;0.00;;;11.70;99.90;;;;;;20907659;28;20438;-68
2023/02/28 10:58:51;;;;;;;0.20;0.00;;;11.20;99.90;;;;;;20952450;28;20445;-68
2023/02/28 11:08:59;;;;;;;0.20;0.10;;;12.30;99.90;;;;;;20988114;28;20394;-67
2023/02/28 11:19:04;;;;;;;0.20;0.10;;;12.90;99.90;;;;;;20969563;28;20425;-67
2023/02/28 11:29:21;;;;;;;0.20;0.00;;;13.00;99.90;;;;;;20906473;28;20425;-67
2023/02/28 11:39:26;;;;;;;0.20;0.10;;;12.80;99.90;;;;;;20902862;28;20411;-68
2023/02/28 11:49:42;;;;;;;0.20;0.10;;;13.20;99.90;;;;;;20884842;28;20423;-67
2023/02/28 11:59:57;;;;;;;0.20;0.10;;;13.10;99.90;;;;;;20956954;28;20406;-68
2023/02/28 12:10:13;;;;;;;0.20;0.10;;;13.80;99.90;;;;;;20984490;28;20490;-69
2023/02/28 12:20:27;;;;;;;0.20;0.10;;;14.30;99.90;;;;;;20964525;28;20931;-68
2023/02/28 12:30:36;;;;;;;0.20;0.10;;;14.10;99.90;;;;;;20926813;28;20414;-67
2023/02/28 12:40:47;;;;;;;0.20;0.00;;;14.30;99.90;;;;;;20876183;28;20886;-68
2023/02/28 12:50:53;;;;;;;0.20;0.10;;;14.70;99.90;;;;;;20855403;28;20403;-68
2023/02/28 13:01:28;;;;;;;0.20;0.00;;;14.70;99.90;;;;;;20942951;28;20414;-68
2023/02/28 13:11:39;;;;;;;0.20;0.10;;;15.60;99.90;;;;;;20978872;28;20405;-68
2023/02/28 13:21:45;;;;;;;0.20;0.10;;;16.10;99.90;;;;;;20959467;28;20438;-70
2023/02/28 13:32:22;;;;;;;0.20;0.10;;;18.70;99.90;;;;;;20876553;28;20411;-67
2023/02/28 13:42:37;;;;;;;0.20;0.00;;;20.20;99.90;;;;;;20892963;28;20414;-68
2023/02/28 13:52:49;;;;;;;0.20;0.10;;;21.30;99.90;;;;;;20977935;28;20467;-67
2023/02/28 14:03:31;;;;;;;0.20;0.00;;;19.90;99.90;;;;;;20959568;28;20408;-71
2023/02/28 14:13:46;;;;;;;0.20;0.00;;;20.70;99.90;;;;;;20963863;28;20882;-66
2023/02/28 14:24:29;;;;;;;0.20;0.00;;;21.40;99.90;;;;;;20956034;28;20405;-68
2023/02/28 14:34:48;;;;;;;0.20;0.10;;;21.10;99.90;;;;;;20860458;28;20467;-68
2023/02/28 14:44:56;;;;;;;0.20;0.00;;;19.30;99.90;;;;;;20890885;28;20733;-67
2023/02/28 14:55:04;;;;;;;0.20;0.03;;;21.80;99.90;;;;;;20871961;28;20452;-67
2023/02/28 15:05:26;;;;;;;0.20;0.00;;;20.80;99.90;;;;;;20957515;28;20430;-68
2023/02/28 15:15:41;;;;;;;0.20;0.10;;;22.40;99.90;;;;;;20970229;28;20398;-68
2023/02/28 15:26:04;;;;;;;0.20;0.10;;;18.40;99.90;;;;;;20967667;28;20466;-67
2023/02/28 15:36:15;;;;;;;0.20;0.00;;;15.80;99.90;;;;;;20904322;28;20470;-69
2023/02/28 15:46:21;;;;;;;0.20;0.00;;;15.10;99.90;;;;;;20901013;28;20411;-67
2023/02/28 15:56:28;;;;;;;0.20;0.10;;;14.80;99.90;;;;;;20929504;28;20430;-68
2023/02/28 16:06:39;;;;;;;0.20;0.10;;;18.20;99.90;;;;;;20983014;28;20414;-68
2023/02/28 16:16:50;;;;;;;0.20;0.10;;;18.00;99.90;;;;;;20961714;28;20780;-67
2023/02/28 16:26:56;;;;;;;0.20;0.10;;;17.80;99.90;;;;;;20935201;28;20412;-67
2023/02/28 16:37:02;;;;;;;0.20;0.10;;;16.70;99.90;;;;;;20879537;28;20879;-67
2023/02/28 16:47:06;;;;;;;0.20;0.00;;;15.20;99.90;;;;;;20879404;28;20411;-67
2023/02/28 16:57:20;;;;;;;0.20;0.00;;;15.00;99.90;;;;;;20909195;28;20456;-70
2023/02/28 17:07:23;;;;;;;0.20;0.00;;;14.40;99.90;;;;;;20974833;28;20822;-67
2023/02/28 17:17:30;;;;;;;0.20;0.00;;;14.10;99.90;;;;;;20991815;28;20402;-66
2023/02/28 17:27:34;;;;;;;0.20;0.00;;;13.80;99.90;;;;;;20951197;28;20417;-65
2023/02/28 17:37:40;;;;;;;0.20;0.00;;;14.10;99.90;;;;;;20954957;28;20402;-66
2023/02/28 17:47:47;;;;;;;0.20;0.00;;;13.60;99.90;;;;;;20972957;28;20410;-68
2023/02/28 17:57:52;;;;;;;0.20;0.10;;;13.40;99.90;;;;;;20940173;28;20877;-66
2023/02/28 18:07:56;;;;;;;0.20;0.10;;;13.30;99.90;;;;;;20945883;28;20425;-68
2023/02/28 18:18:02;;;;;;;0.20;0.00;;;13.10;99.90;;;;;;20964796;28;20414;-67
2023/02/28 18:28:05;;;;;;;0.20;0.10;;;13.00;99.90;;;;;;20970543;28;20409;-67
2023/02/28 18:38:14;;;;;;;0.20;0.00;;;12.80;99.90;;;;;;20994261;28;20393;-64
2023/02/28 18:48:19;;;;;;;0.20;0.10;;;12.80;99.90;;;;;;20990155;28;20413;-68
2023/02/28 18:58:24;;;;;;;0.20;0.00;;;12.60;99.90;;;;;;20973869;28;20413;-67
2023/02/28 19:08:28;;;;;;;0.20;0.00;;;12.40;99.90;;;;;;20988774;28;20501;-67
2023/02/28 19:18:33;;;;;;;0.20;0.10;;;12.00;99.90;;;;;;20970431;28;20394;-68
2023/02/28 19:28:38;;;;;;;0.20;0.10;;;11.70;99.90;;;;;;20965674;28;20464;-67
2023/02/28 19:38:44;;;;;;;0.20;0.10;;;11.10;99.90;;;;;;20920571;28;20461;-67
2023/02/28 19:48:48;;;;;;;0.20;0.10;;;10.90;99.90;;;;;;20962071;28;20414;-67
2023/02/28 19:58:53;;;;;;;0.20;0.10;;;10.80;99.90;;;;;;20958491;28;20819;-68
2023/02/28 20:08:57;;;;;;;0.20;0.10;;;10.60;99.90;;;;;;20976085;28;20912;-67
2023/02/28 20:19:03;;;;;;;0.20;0.10;;;10.60;99.90;;;;;;20977742;28;20413;-67
2023/02/28 20:29:08;;;;;;;0.20;0.10;;;10.90;99.90;;;;;;20958272;28;20410;-67
2023/02/28 20:39:14;;;;;;;0.20;0.10;;;10.40;99.90;;;;;;20970960;28;20444;-67
2023/02/28 20:49:17;;;;;;;0.20;0.10;;;10.20;99.90;;;;;;20895542;28;2278758;-67
2023/02/28 20:59:23;;;;;;;0.20;0.10;;;9.70;99.90;;;;;;20977726;28;20451;-67
2023/02/28 21:09:27;;;;;;;0.20;0.10;;;9.60;99.90;;;;;;20975758;28;20481;-68
2023/02/28 21:19:32;;;;;;;0.20;0.10;;;9.20;99.90;;;;;;20980360;28;20407;-67
2023/02/28 21:29:37;;;;;;;0.20;0.00;;;8.90;99.90;;;;;;20971266;28;20779;-66
2023/02/28 21:39:42;;;;;;;0.20;0.00;;;8.90;99.90;;;;;;20911921;28;20408;-69
2023/02/28 21:49:46;;;;;;;0.20;0.10;;;8.70;99.90;;;;;;20960519;28;20446;-67
2023/02/28 21:59:51;;;;;;;0.20;0.00;;;8.40;99.90;;;;;;20976126;28;20417;-67
2023/02/28 22:09:54;;;;;;;0.20;0.10;;;8.00;99.90;;;;;;20949643;28;20421;-68
2023/02/28 22:20:00;;;;;;;0.20;0.10;;;8.10;99.90;;;;;;20949660;28;20493;-67
2023/02/28 22:30:04;;;;;;;0.20;0.10;;;8.20;99.90;;;;;;20974545;28;20445;-67
2023/02/28 22:40:11;;;;;;;0.20;0.03;;;7.90;99.90;;;;;;20905474;28;20867;-66
2023/02/28 22:50:15;;;;;;;0.20;0.10;;;7.80;99.90;;;;;;20961904;28;20478;-67
2023/02/28 23:00:20;;;;;;;0.20;0.10;;;7.80;99.90;;;;;;20973563;28;20459;-67
2023/02/28 23:10:24;;;;;;;0.20;0.00;;;7.80;99.90;;;;;;20958598;28;20542;-67
2023/02/28 23:20:29;;;;;;;0.20;0.00;;;7.10;99.90;;;;;;20959094;28;20924;-68
2023/02/28 23:30:33;;;;;;;0.20;0.10;;;6.80;99.90;;;;;;20950819;28;20421;-68
2023/02/28 23:40:42;;;;;;;0.20;0.17;;;6.60;99.90;;;;;;20916668;28;20755;-67
2023/02/28 23:50:46;;;;;;;0.20;0.00;;;6.50;99.90;;;;;;20947054;28;20414;-66
